sensor_id;sensor_type;location;lat;lon;timestamp;temperature;humidity
1538;DHT22;12022;52.266;10.522;2022-09-16T00:00:43;13.50;99.90
1538;DHT22;12022;52.266;10.522;2022-09-16T00:03:11;13.50;99.90
1538;DHT22;12022;52.266;10.522;2022-09-16T00:05:47;13.50;99.90
1538;DHT22;12022;52.266;10.522;2022-09-16T00:08:15;13.40;99.90
1538;DHT22;12022;52.266;10.522;2022-09-16T00:10:43;13.30;99.90
1538;DHT22;12022;52.266;10.522;2022-09-16T00:13:12;13.30;99.90
1538;DHT22;12022;52.266;10.522;2022-09-16T00:15:44;13.30;99.90
1538;DHT22;12022;52.266;10.522;2022-09-16T00:18:11;13.30;99.90
1538;DHT22;12022;52.266;10.522;2022-09-16T00:20:46;13.20;99.90
1538;DHT22;12022;52.266;10.522;2022-09-16T00:23:13;13.20;99.90
1538;DHT22;12022;52.266;10.522;2022-09-16T00:25:41;13.20;99.90
1538;DHT22;12022;52.266;10.522;2022-09-16T00:28:08;13.10;99.90
1538;DHT22;12022;52.266;10.522;2022-09-16T00:30:35;13.10;99.90
1538;DHT22;12022;52.266;10.522;2022-09-16T00:33:02;13.10;99.90
1538;DHT22;12022;52.266;10.522;2022-09-16T00:35:29;13.10;99.90
1538;DHT22;12022;52.266;10.522;2022-09-16T00:37:56;13.10;99.90
1538;DHT22;12022;52.266;10.522;2022-09-16T00:40:23;13.00;99.90
1538;DHT22;12022;52.266;10.522;2022-09-16T00:42:50;12.90;99.90
1538;DHT22;12022;52.266;10.522;2022-09-16T00:45:20;12.90;99.90
1538;DHT22;12022;52.266;10.522;2022-09-16T00:48:00;12.90;99.90
1538;DHT22;12022;52.266;10.522;2022-09-16T00:50:36;12.90;99.90
1538;DHT22;12022;52.266;10.522;2022-09-16T00:53:15;13.00;99.90
1538;DHT22;12022;52.266;10.522;2022-09-16T00:55:43;12.90;99.90
1538;DHT22;12022;52.266;10.522;2022-09-16T01:00:46;12.90;99.90
1538;DHT22;12022;52.266;10.522;2022-09-16T01:03:13;12.90;99.90
1538;DHT22;12022;52.266;10.522;2022-09-16T01:05:40;13.10;99.90
1538;DHT22;12022;52.266;10.522;2022-09-16T01:08:08;12.90;99.90
1538;DHT22;12022;52.266;10.522;2022-09-16T01:10:35;13.10;99.90
1538;DHT22;12022;52.266;10.522;2022-09-16T01:13:03;12.80;99.90
1538;DHT22;12022;52.266;10.522;2022-09-16T01:21:04;12.80;99.90
1538;DHT22;12022;52.266;10.522;2022-09-16T01:24:00;12.80;99.90
1538;DHT22;12022;52.266;10.522;2022-09-16T01:26:38;12.80;99.90
1538;DHT22;12022;52.266;10.522;2022-09-16T01:35:06;12.80;99.90
1538;DHT22;12022;52.266;10.522;2022-09-16T01:40:18;12.70;99.90
1538;DHT22;12022;52.266;10.522;2022-09-16T01:46:01;13.00;99.90
1538;DHT22;12022;52.266;10.522;2022-09-16T01:48:41;12.80;99.90
1538;DHT22;12022;52.266;10.522;2022-09-16T01:54:04;12.80;99.90
1538;DHT22;12022;52.266;10.522;2022-09-16T01:56:46;12.90;99.90
1538;DHT22;12022;52.266;10.522;2022-09-16T01:59:21;12.80;99.90
1538;DHT22;12022;52.266;10.522;2022-09-16T02:02:10;12.80;99.90
1538;DHT22;12022;52.266;10.522;2022-09-16T02:04:45;12.80;99.90
1538;DHT22;12022;52.266;10.522;2022-09-16T02:07:16;12.80;99.90
1538;DHT22;12022;52.266;10.522;2022-09-16T02:09:49;12.90;99.90
1538;DHT22;12022;52.266;10.522;2022-09-16T02:12:22;13.00;99.90
1538;DHT22;12022;52.266;10.522;2022-09-16T02:14:54;13.00;99.90
1538;DHT22;12022;52.266;10.522;2022-09-16T02:17:23;13.10;99.90
1538;DHT22;12022;52.266;10.522;2022-09-16T02:20:13;13.10;99.90
1538;DHT22;12022;52.266;10.522;2022-09-16T02:22:46;13.20;99.90
1538;DHT22;12022;52.266;10.522;2022-09-16T02:25:17;13.20;99.90
1538;DHT22;12022;52.266;10.522;2022-09-16T02:27:46;13.30;99.90
1538;DHT22;12022;52.266;10.522;2022-09-16T02:30:17;13.30;99.90
1538;DHT22;12022;52.266;10.522;2022-09-16T02:32:52;13.30;99.90
1538;DHT22;12022;52.266;10.522;2022-09-16T02:35:21;13.40;99.90
1538;DHT22;12022;52.266;10.522;2022-09-16T02:37:55;13.40;99.90
1538;DHT22;12022;52.266;10.522;2022-09-16T02:40:44;13.40;99.90
1538;DHT22;12022;52.266;10.522;2022-09-16T02:43:12;13.50;99.90
1538;DHT22;12022;52.266;10.522;2022-09-16T02:48:27;13.50;99.90
1538;DHT22;12022;52.266;10.522;2022-09-16T02:53:55;13.50;99.90
1538;DHT22;12022;52.266;10.522;2022-09-16T02:56:42;13.50;99.90
1538;DHT22;12022;52.266;10.522;2022-09-16T02:59:10;13.50;99.90
1538;DHT22;12022;52.266;10.522;2022-09-16T03:01:41;13.50;99.90
1538;DHT22;12022;52.266;10.522;2022-09-16T03:04:14;13.40;99.90
1538;DHT22;12022;52.266;10.522;2022-09-16T03:06:41;13.40;99.90
1538;DHT22;12022;52.266;10.522;2022-09-16T03:09:10;13.30;99.90
1538;DHT22;12022;52.266;10.522;2022-09-16T03:12:09;13.20;99.90
1538;DHT22;12022;52.266;10.522;2022-09-16T03:14:46;13.10;99.90
1538;DHT22;12022;52.266;10.522;2022-09-16T03:28:35;12.80;99.90
1538;DHT22;12022;52.266;10.522;2022-09-16T03:31:18;12.80;99.90
1538;DHT22;12022;52.266;10.522;2022-09-16T03:33:51;12.70;99.90
1538;DHT22;12022;52.266;10.522;2022-09-16T03:36:25;12.70;99.90
1538;DHT22;12022;52.266;10.522;2022-09-16T03:38:57;12.70;99.90
1538;DHT22;12022;52.266;10.522;2022-09-16T03:41:27;12.60;99.90
1538;DHT22;12022;52.266;10.522;2022-09-16T03:43:56;12.60;99.90
1538;DHT22;12022;52.266;10.522;2022-09-16T03:46:30;12.50;99.90
1538;DHT22;12022;52.266;10.522;2022-09-16T03:48:58;12.60;99.90
1538;DHT22;12022;52.266;10.522;2022-09-16T03:51:25;12.50;99.90
1538;DHT22;12022;52.266;10.522;2022-09-16T03:53:55;12.50;99.90
1538;DHT22;12022;52.266;10.522;2022-09-16T03:56:23;12.50;99.90
1538;DHT22;12022;52.266;10.522;2022-09-16T03:58:50;12.50;99.90
1538;DHT22;12022;52.266;10.522;2022-09-16T04:01:17;12.50;99.90
1538;DHT22;12022;52.266;10.522;2022-09-16T04:03:44;12.40;99.90
1538;DHT22;12022;52.266;10.522;2022-09-16T04:06:11;12.50;99.90
1538;DHT22;12022;52.266;10.522;2022-09-16T04:08:38;12.40;99.90
1538;DHT22;12022;52.266;10.522;2022-09-16T04:11:05;12.50;99.90
1538;DHT22;12022;52.266;10.522;2022-09-16T04:13:34;12.50;99.90
1538;DHT22;12022;52.266;10.522;2022-09-16T04:16:02;12.50;99.90
1538;DHT22;12022;52.266;10.522;2022-09-16T04:18:31;12.50;99.90
1538;DHT22;12022;52.266;10.522;2022-09-16T04:20:59;12.50;99.90
1538;DHT22;12022;52.266;10.522;2022-09-16T04:23:27;12.50;99.90
1538;DHT22;12022;52.266;10.522;2022-09-16T04:26:00;12.50;99.90
1538;DHT22;12022;52.266;10.522;2022-09-16T04:28:29;12.50;99.90
1538;DHT22;12022;52.266;10.522;2022-09-16T04:31:00;12.70;99.90
1538;DHT22;12022;52.266;10.522;2022-09-16T04:33:30;12.50;99.90
1538;DHT22;12022;52.266;10.522;2022-09-16T04:36:05;12.50;99.90
1538;DHT22;12022;52.266;10.522;2022-09-16T04:38:32;12.50;99.90
1538;DHT22;12022;52.266;10.522;2022-09-16T04:41:11;12.40;99.90
1538;DHT22;12022;52.266;10.522;2022-09-16T04:43:38;12.40;99.90
1538;DHT22;12022;52.266;10.522;2022-09-16T04:46:06;12.40;99.90
1538;DHT22;12022;52.266;10.522;2022-09-16T04:48:33;12.70;99.90
1538;DHT22;12022;52.266;10.522;2022-09-16T04:51:06;12.40;99.90
1538;DHT22;12022;52.266;10.522;2022-09-16T04:53:35;12.40;99.90
1538;DHT22;12022;52.266;10.522;2022-09-16T04:56:10;12.40;99.90
1538;DHT22;12022;52.266;10.522;2022-09-16T04:58:42;12.30;99.90
1538;DHT22;12022;52.266;10.522;2022-09-16T05:01:12;12.40;99.90
1538;DHT22;12022;52.266;10.522;2022-09-16T05:03:40;12.50;99.90
1538;DHT22;12022;52.266;10.522;2022-09-16T05:06:11;12.60;99.90
1538;DHT22;12022;52.266;10.522;2022-09-16T05:08:40;12.60;99.90
1538;DHT22;12022;52.266;10.522;2022-09-16T05:11:09;12.70;99.90
1538;DHT22;12022;52.266;10.522;2022-09-16T05:13:37;12.80;99.90
1538;DHT22;12022;52.266;10.522;2022-09-16T05:16:09;12.90;99.90
1538;DHT22;12022;52.266;10.522;2022-09-16T05:18:38;13.00;99.90
1538;DHT22;12022;52.266;10.522;2022-09-16T05:21:11;13.10;99.90
1538;DHT22;12022;52.266;10.522;2022-09-16T05:23:38;13.20;99.90
1538;DHT22;12022;52.266;10.522;2022-09-16T05:26:18;13.30;99.90
1538;DHT22;12022;52.266;10.522;2022-09-16T05:28:46;13.30;99.90
1538;DHT22;12022;52.266;10.522;2022-09-16T05:31:15;13.30;99.90
1538;DHT22;12022;52.266;10.522;2022-09-16T05:34:03;13.30;99.90
1538;DHT22;12022;52.266;10.522;2022-09-16T05:36:32;13.40;99.90
1538;DHT22;12022;52.266;10.522;2022-09-16T05:39:00;13.50;99.90
1538;DHT22;12022;52.266;10.522;2022-09-16T05:41:48;13.50;99.90
1538;DHT22;12022;52.266;10.522;2022-09-16T05:44:15;13.60;99.90
1538;DHT22;12022;52.266;10.522;2022-09-16T05:46:42;13.70;99.90
1538;DHT22;12022;52.266;10.522;2022-09-16T05:49:10;13.80;99.90
1538;DHT22;12022;52.266;10.522;2022-09-16T05:51:38;13.90;99.90
1538;DHT22;12022;52.266;10.522;2022-09-16T05:54:05;14.00;99.90
1538;DHT22;12022;52.266;10.522;2022-09-16T05:56:33;14.10;99.90
1538;DHT22;12022;52.266;10.522;2022-09-16T05:59:00;14.20;99.90
1538;DHT22;12022;52.266;10.522;2022-09-16T06:01:34;14.30;99.90
1538;DHT22;12022;52.266;10.522;2022-09-16T06:04:03;14.40;99.90
1538;DHT22;12022;52.266;10.522;2022-09-16T06:06:35;14.50;99.90
1538;DHT22;12022;52.266;10.522;2022-09-16T06:09:14;14.50;99.90
1538;DHT22;12022;52.266;10.522;2022-09-16T06:11:44;14.70;99.90
1538;DHT22;12022;52.266;10.522;2022-09-16T06:14:12;15.40;99.90
1538;DHT22;12022;52.266;10.522;2022-09-16T06:16:40;16.30;99.90
1538;DHT22;12022;52.266;10.522;2022-09-16T06:19:11;17.00;99.90
1538;DHT22;12022;52.266;10.522;2022-09-16T06:21:40;17.40;99.90
1538;DHT22;12022;52.266;10.522;2022-09-16T06:24:07;17.40;99.90
1538;DHT22;12022;52.266;10.522;2022-09-16T06:26:37;17.40;99.90
1538;DHT22;12022;52.266;10.522;2022-09-16T06:29:04;17.40;99.90
1538;DHT22;12022;52.266;10.522;2022-09-16T06:31:33;17.50;99.90
1538;DHT22;12022;52.266;10.522;2022-09-16T06:34:00;17.50;99.90
1538;DHT22;12022;52.266;10.522;2022-09-16T06:36:33;17.50;99.90
1538;DHT22;12022;52.266;10.522;2022-09-16T06:39:00;18.10;99.90
1538;DHT22;12022;52.266;10.522;2022-09-16T06:41:29;19.00;99.90
1538;DHT22;12022;52.266;10.522;2022-09-16T06:43:56;20.20;99.90
1538;DHT22;12022;52.266;10.522;2022-09-16T06:46:25;21.20;99.90
1538;DHT22;12022;52.266;10.522;2022-09-16T06:48:54;22.20;99.90
1538;DHT22;12022;52.266;10.522;2022-09-16T06:51:31;22.00;99.90
1538;DHT22;12022;52.266;10.522;2022-09-16T06:54:01;21.20;99.90
1538;DHT22;12022;52.266;10.522;2022-09-16T06:56:29;20.20;99.90
1538;DHT22;12022;52.266;10.522;2022-09-16T06:59:00;19.50;99.90
1538;DHT22;12022;52.266;10.522;2022-09-16T07:01:29;18.90;99.90
1538;DHT22;12022;52.266;10.522;2022-09-16T07:03:57;18.50;99.90
1538;DHT22;12022;52.266;10.522;2022-09-16T07:06:29;18.40;99.90
1538;DHT22;12022;52.266;10.522;2022-09-16T07:09:16;18.20;99.90
1538;DHT22;12022;52.266;10.522;2022-09-16T07:11:43;18.10;99.90
1538;DHT22;12022;52.266;10.522;2022-09-16T07:14:11;18.00;99.90
1538;DHT22;12022;52.266;10.522;2022-09-16T07:16:38;17.90;99.90
1538;DHT22;12022;52.266;10.522;2022-09-16T07:19:06;17.80;99.90
1538;DHT22;12022;52.266;10.522;2022-09-16T07:21:33;17.70;99.90
1538;DHT22;12022;52.266;10.522;2022-09-16T07:24:02;17.60;99.90
1538;DHT22;12022;52.266;10.522;2022-09-16T07:26:31;17.70;99.90
1538;DHT22;12022;52.266;10.522;2022-09-16T07:29:05;17.80;99.90
1538;DHT22;12022;52.266;10.522;2022-09-16T07:31:36;17.80;99.90
1538;DHT22;12022;52.266;10.522;2022-09-16T07:34:05;17.90;99.90
1538;DHT22;12022;52.266;10.522;2022-09-16T07:36:35;17.90;99.90
1538;DHT22;12022;52.266;10.522;2022-09-16T07:39:03;17.60;99.90
1538;DHT22;12022;52.266;10.522;2022-09-16T07:41:36;17.30;99.90
1538;DHT22;12022;52.266;10.522;2022-09-16T07:44:04;17.10;99.90
1538;DHT22;12022;52.266;10.522;2022-09-16T07:46:33;17.00;99.90
1538;DHT22;12022;52.266;10.522;2022-09-16T07:49:03;17.00;99.90
1538;DHT22;12022;52.266;10.522;2022-09-16T07:51:31;16.90;99.90
1538;DHT22;12022;52.266;10.522;2022-09-16T07:54:03;16.90;99.90
1538;DHT22;12022;52.266;10.522;2022-09-16T07:56:36;16.90;99.90
1538;DHT22;12022;52.266;10.522;2022-09-16T07:59:07;16.90;99.90
1538;DHT22;12022;52.266;10.522;2022-09-16T08:01:41;16.90;99.90
1538;DHT22;12022;52.266;10.522;2022-09-16T08:04:19;16.90;99.90
1538;DHT22;12022;52.266;10.522;2022-09-16T08:07:13;16.90;99.90
1538;DHT22;12022;52.266;10.522;2022-09-16T08:09:47;16.90;99.90
1538;DHT22;12022;52.266;10.522;2022-09-16T08:12:17;17.00;99.90
1538;DHT22;12022;52.266;10.522;2022-09-16T08:14:44;17.20;99.90
1538;DHT22;12022;52.266;10.522;2022-09-16T08:17:11;17.30;99.90
1538;DHT22;12022;52.266;10.522;2022-09-16T08:19:38;17.40;99.90
1538;DHT22;12022;52.266;10.522;2022-09-16T08:22:07;17.30;99.90
1538;DHT22;12022;52.266;10.522;2022-09-16T08:24:34;17.30;99.90
1538;DHT22;12022;52.266;10.522;2022-09-16T08:27:01;17.20;99.90
1538;DHT22;12022;52.266;10.522;2022-09-16T08:29:28;17.20;99.90
1538;DHT22;12022;52.266;10.522;2022-09-16T08:31:55;17.10;99.90
1538;DHT22;12022;52.266;10.522;2022-09-16T08:34:22;17.10;99.90
1538;DHT22;12022;52.266;10.522;2022-09-16T08:36:49;17.10;99.90
1538;DHT22;12022;52.266;10.522;2022-09-16T08:39:18;17.10;99.90
1538;DHT22;12022;52.266;10.522;2022-09-16T08:50:20;17.10;99.90
1538;DHT22;12022;52.266;10.522;2022-09-16T08:52:49;17.20;99.90
1538;DHT22;12022;52.266;10.522;2022-09-16T08:55:25;17.40;99.90
1538;DHT22;12022;52.266;10.522;2022-09-16T08:58:03;17.70;99.90
1538;DHT22;12022;52.266;10.522;2022-09-16T09:00:32;17.80;99.90
1538;DHT22;12022;52.266;10.522;2022-09-16T09:03:20;18.10;99.90
1538;DHT22;12022;52.266;10.522;2022-09-16T09:05:57;18.10;99.90
1538;DHT22;12022;52.266;10.522;2022-09-16T09:14:24;18.30;99.90
1538;DHT22;12022;52.266;10.522;2022-09-16T09:17:11;18.30;99.90
1538;DHT22;12022;52.266;10.522;2022-09-16T09:20:08;18.30;99.90
1538;DHT22;12022;52.266;10.522;2022-09-16T09:25:57;18.30;99.90
1538;DHT22;12022;52.266;10.522;2022-09-16T09:36:50;18.80;99.90
1538;DHT22;12022;52.266;10.522;2022-09-16T09:44:45;18.80;99.90
1538;DHT22;12022;52.266;10.522;2022-09-16T09:47:20;18.80;99.90
1538;DHT22;12022;52.266;10.522;2022-09-16T09:49:55;18.80;99.90
1538;DHT22;12022;52.266;10.522;2022-09-16T09:54:52;18.70;99.90
1538;DHT22;12022;52.266;10.522;2022-09-16T10:02:24;18.60;99.90
1538;DHT22;12022;52.266;10.522;2022-09-16T10:04:51;18.70;99.90
1538;DHT22;12022;52.266;10.522;2022-09-16T10:07:20;18.60;99.90
1538;DHT22;12022;52.266;10.522;2022-09-16T10:10:00;18.50;99.90
1538;DHT22;12022;52.266;10.522;2022-09-16T10:12:34;18.40;99.90
1538;DHT22;12022;52.266;10.522;2022-09-16T10:15:02;18.40;99.90
1538;DHT22;12022;52.266;10.522;2022-09-16T10:17:31;18.40;99.90
1538;DHT22;12022;52.266;10.522;2022-09-16T10:20:04;18.40;99.90
1538;DHT22;12022;52.266;10.522;2022-09-16T10:22:35;18.50;99.90
1538;DHT22;12022;52.266;10.522;2022-09-16T10:25:21;18.60;99.90
1538;DHT22;12022;52.266;10.522;2022-09-16T10:28:01;18.70;99.90
1538;DHT22;12022;52.266;10.522;2022-09-16T10:30:30;18.60;99.90
1538;DHT22;12022;52.266;10.522;2022-09-16T10:33:02;18.60;99.90
1538;DHT22;12022;52.266;10.522;2022-09-16T10:35:37;18.80;99.90
1538;DHT22;12022;52.266;10.522;2022-09-16T10:40:35;19.00;99.90
1538;DHT22;12022;52.266;10.522;2022-09-16T10:43:06;18.90;99.90
1538;DHT22;12022;52.266;10.522;2022-09-16T10:45:50;18.80;99.90
1538;DHT22;12022;52.266;10.522;2022-09-16T10:48:25;17.90;99.90
1538;DHT22;12022;52.266;10.522;2022-09-16T10:50:58;17.20;99.90
1538;DHT22;12022;52.266;10.522;2022-09-16T10:53:35;16.70;99.90
1538;DHT22;12022;52.266;10.522;2022-09-16T10:56:18;16.30;99.90
1538;DHT22;12022;52.266;10.522;2022-09-16T10:58:45;16.00;99.90
1538;DHT22;12022;52.266;10.522;2022-09-16T11:01:18;15.80;99.90
1538;DHT22;12022;52.266;10.522;2022-09-16T11:12:27;15.40;99.90
1538;DHT22;12022;52.266;10.522;2022-09-16T11:15:16;15.60;99.90
1538;DHT22;12022;52.266;10.522;2022-09-16T11:20:41;16.40;99.90
1538;DHT22;12022;52.266;10.522;2022-09-16T11:37:45;17.80;99.90
1538;DHT22;12022;52.266;10.522;2022-09-16T11:48:48;18.40;99.90
1538;DHT22;12022;52.266;10.522;2022-09-16T11:57:37;19.30;99.90
1538;DHT22;12022;52.266;10.522;2022-09-16T12:00:16;19.40;99.90
1538;DHT22;12022;52.266;10.522;2022-09-16T12:05:39;19.60;99.30
1538;DHT22;12022;52.266;10.522;2022-09-16T12:08:20;19.60;99.00
1538;DHT22;12022;52.266;10.522;2022-09-16T12:10:57;19.50;98.70
1538;DHT22;12022;52.266;10.522;2022-09-16T12:13:30;19.40;99.50
1538;DHT22;12022;52.266;10.522;2022-09-16T12:16:14;19.30;99.40
1538;DHT22;12022;52.266;10.522;2022-09-16T12:18:46;19.30;99.10
1538;DHT22;12022;52.266;10.522;2022-09-16T12:21:22;19.10;98.60
1538;DHT22;12022;52.266;10.522;2022-09-16T12:23:56;19.10;98.70
1538;DHT22;12022;52.266;10.522;2022-09-16T12:26:47;19.20;99.80
1538;DHT22;12022;52.266;10.522;2022-09-16T12:29:54;19.20;99.00
1538;DHT22;12022;52.266;10.522;2022-09-16T12:32:49;19.20;99.60
1538;DHT22;12022;52.266;10.522;2022-09-16T12:35:32;19.10;99.90
1538;DHT22;12022;52.266;10.522;2022-09-16T12:38:00;19.30;98.80
1538;DHT22;12022;52.266;10.522;2022-09-16T12:43:41;19.70;97.90
1538;DHT22;12022;52.266;10.522;2022-09-16T12:58:00;19.60;99.40
1538;DHT22;12022;52.266;10.522;2022-09-16T13:03:39;18.90;99.40
1538;DHT22;12022;52.266;10.522;2022-09-16T13:06:24;18.50;99.70
1538;DHT22;12022;52.266;10.522;2022-09-16T13:08:52;18.30;99.90
1538;DHT22;12022;52.266;10.522;2022-09-16T13:11:27;18.20;99.90
1538;DHT22;12022;52.266;10.522;2022-09-16T13:14:33;18.00;99.90
1538;DHT22;12022;52.266;10.522;2022-09-16T13:17:02;17.90;99.90
1538;DHT22;12022;52.266;10.522;2022-09-16T13:22:28;17.80;99.90
1538;DHT22;12022;52.266;10.522;2022-09-16T13:25:20;17.80;99.90
1538;DHT22;12022;52.266;10.522;2022-09-16T13:27:57;18.00;99.90
1538;DHT22;12022;52.266;10.522;2022-09-16T13:30:31;17.80;99.90
1538;DHT22;12022;52.266;10.522;2022-09-16T13:35:41;18.00;99.90
1538;DHT22;12022;52.266;10.522;2022-09-16T13:40:59;18.40;99.90
1538;DHT22;12022;52.266;10.522;2022-09-16T13:43:35;18.50;99.90
1538;DHT22;12022;52.266;10.522;2022-09-16T13:46:08;18.40;99.90
1538;DHT22;12022;52.266;10.522;2022-09-16T13:51:32;17.00;99.90
1538;DHT22;12022;52.266;10.522;2022-09-16T13:54:03;16.40;99.90
1538;DHT22;12022;52.266;10.522;2022-09-16T14:02:10;15.60;99.90
1538;DHT22;12022;52.266;10.522;2022-09-16T14:08:02;15.30;99.90
1538;DHT22;12022;52.266;10.522;2022-09-16T14:13:19;15.10;99.90
1538;DHT22;12022;52.266;10.522;2022-09-16T14:15:56;15.00;99.90
1538;DHT22;12022;52.266;10.522;2022-09-16T14:18:28;14.90;99.90
1538;DHT22;12022;52.266;10.522;2022-09-16T14:21:15;14.70;99.90
1538;DHT22;12022;52.266;10.522;2022-09-16T14:23:43;14.50;99.90
1538;DHT22;12022;52.266;10.522;2022-09-16T14:26:21;14.40;99.90
1538;DHT22;12022;52.266;10.522;2022-09-16T14:28:49;14.30;99.90
1538;DHT22;12022;52.266;10.522;2022-09-16T14:31:21;14.40;99.90
1538;DHT22;12022;52.266;10.522;2022-09-16T14:33:58;14.60;99.90
1538;DHT22;12022;52.266;10.522;2022-09-16T14:36:34;14.90;99.90
1538;DHT22;12022;52.266;10.522;2022-09-16T14:39:10;15.20;99.90
1538;DHT22;12022;52.266;10.522;2022-09-16T14:41:42;15.40;99.90
1538;DHT22;12022;52.266;10.522;2022-09-16T14:46:49;15.60;99.90
1538;DHT22;12022;52.266;10.522;2022-09-16T14:49:30;15.60;99.90
1538;DHT22;12022;52.266;10.522;2022-09-16T14:52:00;15.50;99.90
1538;DHT22;12022;52.266;10.522;2022-09-16T14:54:30;15.50;99.90
1538;DHT22;12022;52.266;10.522;2022-09-16T14:57:06;15.40;99.90
1538;DHT22;12022;52.266;10.522;2022-09-16T14:59:40;15.40;99.90
1538;DHT22;12022;52.266;10.522;2022-09-16T15:04:47;15.20;99.90
1538;DHT22;12022;52.266;10.522;2022-09-16T15:07:22;15.30;99.90
1538;DHT22;12022;52.266;10.522;2022-09-16T15:12:51;15.30;99.90
1538;DHT22;12022;52.266;10.522;2022-09-16T15:15:22;15.40;99.90
1538;DHT22;12022;52.266;10.522;2022-09-16T15:18:11;15.40;99.90
1538;DHT22;12022;52.266;10.522;2022-09-16T15:20:41;15.40;99.90
1538;DHT22;12022;52.266;10.522;2022-09-16T15:23:19;15.50;99.90
1538;DHT22;12022;52.266;10.522;2022-09-16T15:25:58;15.60;99.90
1538;DHT22;12022;52.266;10.522;2022-09-16T15:28:31;15.70;99.90
1538;DHT22;12022;52.266;10.522;2022-09-16T15:30:58;15.70;99.90
1538;DHT22;12022;52.266;10.522;2022-09-16T15:33:34;15.80;99.90
1538;DHT22;12022;52.266;10.522;2022-09-16T15:36:02;15.90;99.90
1538;DHT22;12022;52.266;10.522;2022-09-16T15:38:29;16.00;99.90
1538;DHT22;12022;52.266;10.522;2022-09-16T15:41:11;16.00;99.90
1538;DHT22;12022;52.266;10.522;2022-09-16T15:43:41;16.00;99.90
1538;DHT22;12022;52.266;10.522;2022-09-16T15:46:18;16.00;99.90
1538;DHT22;12022;52.266;10.522;2022-09-16T15:49:00;15.90;99.90
1538;DHT22;12022;52.266;10.522;2022-09-16T15:54:16;15.90;99.90
1538;DHT22;12022;52.266;10.522;2022-09-16T15:57:10;15.80;99.90
1538;DHT22;12022;52.266;10.522;2022-09-16T15:59:53;15.70;99.90
1538;DHT22;12022;52.266;10.522;2022-09-16T16:05:23;15.70;99.90
1538;DHT22;12022;52.266;10.522;2022-09-16T16:07:53;15.70;99.90
1538;DHT22;12022;52.266;10.522;2022-09-16T16:12:58;15.60;99.90
1538;DHT22;12022;52.266;10.522;2022-09-16T16:15:33;15.50;99.90
1538;DHT22;12022;52.266;10.522;2022-09-16T16:18:03;15.50;99.90
1538;DHT22;12022;52.266;10.522;2022-09-16T16:20:31;15.50;99.90
1538;DHT22;12022;52.266;10.522;2022-09-16T16:22:59;15.50;99.90
1538;DHT22;12022;52.266;10.522;2022-09-16T16:25:27;15.60;99.90
1538;DHT22;12022;52.266;10.522;2022-09-16T16:27:54;15.60;99.90
1538;DHT22;12022;52.266;10.522;2022-09-16T16:30:21;15.50;99.90
1538;DHT22;12022;52.266;10.522;2022-09-16T16:32:48;15.50;99.90
1538;DHT22;12022;52.266;10.522;2022-09-16T16:35:15;15.40;99.90
1538;DHT22;12022;52.266;10.522;2022-09-16T16:37:42;15.40;99.90
1538;DHT22;12022;52.266;10.522;2022-09-16T16:40:14;15.40;99.90
1538;DHT22;12022;52.266;10.522;2022-09-16T16:42:42;15.40;99.90
1538;DHT22;12022;52.266;10.522;2022-09-16T16:45:13;15.30;99.90
1538;DHT22;12022;52.266;10.522;2022-09-16T16:47:41;15.30;99.90
1538;DHT22;12022;52.266;10.522;2022-09-16T16:50:09;15.30;99.90
1538;DHT22;12022;52.266;10.522;2022-09-16T16:52:36;15.20;99.90
1538;DHT22;12022;52.266;10.522;2022-09-16T16:55:03;15.20;99.90
1538;DHT22;12022;52.266;10.522;2022-09-16T16:57:30;15.20;99.90
1538;DHT22;12022;52.266;10.522;2022-09-16T16:59:57;15.20;99.90
1538;DHT22;12022;52.266;10.522;2022-09-16T17:02:24;15.20;99.90
1538;DHT22;12022;52.266;10.522;2022-09-16T17:04:52;15.40;99.90
1538;DHT22;12022;52.266;10.522;2022-09-16T17:07:18;15.10;99.90
1538;DHT22;12022;52.266;10.522;2022-09-16T17:09:54;15.10;99.90
1538;DHT22;12022;52.266;10.522;2022-09-16T17:12:25;15.10;99.90
1538;DHT22;12022;52.266;10.522;2022-09-16T17:14:52;15.10;99.90
1538;DHT22;12022;52.266;10.522;2022-09-16T17:17:19;15.10;99.90
1538;DHT22;12022;52.266;10.522;2022-09-16T17:19:46;15.20;99.90
1538;DHT22;12022;52.266;10.522;2022-09-16T17:22:12;15.10;99.90
1538;DHT22;12022;52.266;10.522;2022-09-16T17:24:39;15.10;99.90
1538;DHT22;12022;52.266;10.522;2022-09-16T17:27:06;15.10;99.90
1538;DHT22;12022;52.266;10.522;2022-09-16T17:29:33;15.10;99.90
1538;DHT22;12022;52.266;10.522;2022-09-16T17:32:00;15.10;99.90
1538;DHT22;12022;52.266;10.522;2022-09-16T17:34:29;15.10;99.90
1538;DHT22;12022;52.266;10.522;2022-09-16T17:36:56;15.10;99.90
1538;DHT22;12022;52.266;10.522;2022-09-16T17:39:24;15.20;99.90
1538;DHT22;12022;52.266;10.522;2022-09-16T17:41:51;15.00;99.90
1538;DHT22;12022;52.266;10.522;2022-09-16T17:44:20;15.00;99.90
1538;DHT22;12022;52.266;10.522;2022-09-16T17:46:47;15.00;99.90
1538;DHT22;12022;52.266;10.522;2022-09-16T17:49:19;15.00;99.90
1538;DHT22;12022;52.266;10.522;2022-09-16T17:51:48;15.00;99.90
1538;DHT22;12022;52.266;10.522;2022-09-16T17:54:16;15.00;99.90
1538;DHT22;12022;52.266;10.522;2022-09-16T17:56:43;14.90;99.90
1538;DHT22;12022;52.266;10.522;2022-09-16T17:59:12;15.00;99.90
1538;DHT22;12022;52.266;10.522;2022-09-16T18:01:39;15.00;99.90
1538;DHT22;12022;52.266;10.522;2022-09-16T18:04:06;15.00;99.90
1538;DHT22;12022;52.266;10.522;2022-09-16T18:06:39;15.00;99.90
1538;DHT22;12022;52.266;10.522;2022-09-16T18:09:07;15.00;99.90
1538;DHT22;12022;52.266;10.522;2022-09-16T18:11:35;15.00;99.90
1538;DHT22;12022;52.266;10.522;2022-09-16T18:14:04;14.90;99.90
1538;DHT22;12022;52.266;10.522;2022-09-16T18:16:31;15.00;99.90
1538;DHT22;12022;52.266;10.522;2022-09-16T18:19:00;15.00;99.90
1538;DHT22;12022;52.266;10.522;2022-09-16T18:21:28;15.00;99.90
1538;DHT22;12022;52.266;10.522;2022-09-16T18:23:57;15.00;99.90
1538;DHT22;12022;52.266;10.522;2022-09-16T18:26:25;15.00;99.90
1538;DHT22;12022;52.266;10.522;2022-09-16T18:28:53;15.10;99.90
1538;DHT22;12022;52.266;10.522;2022-09-16T18:31:39;15.10;99.90
1538;DHT22;12022;52.266;10.522;2022-09-16T18:34:07;15.10;99.90
1538;DHT22;12022;52.266;10.522;2022-09-16T18:36:35;15.10;99.90
1538;DHT22;12022;52.266;10.522;2022-09-16T18:39:04;15.00;99.90
1538;DHT22;12022;52.266;10.522;2022-09-16T18:41:37;14.90;99.90
1538;DHT22;12022;52.266;10.522;2022-09-16T18:44:11;14.70;99.90
1538;DHT22;12022;52.266;10.522;2022-09-16T18:46:38;14.70;99.90
1538;DHT22;12022;52.266;10.522;2022-09-16T18:49:06;14.60;99.90
1538;DHT22;12022;52.266;10.522;2022-09-16T18:51:35;14.60;99.90
1538;DHT22;12022;52.266;10.522;2022-09-16T18:54:13;14.50;99.90
1538;DHT22;12022;52.266;10.522;2022-09-16T18:56:41;14.60;99.90
1538;DHT22;12022;52.266;10.522;2022-09-16T18:59:14;14.40;99.90
1538;DHT22;12022;52.266;10.522;2022-09-16T19:01:52;14.40;99.90